Flood From: 19-02-2018 10:30 Until: 20-02-2018 06:00 warning for: Flood Level: Yellow info button

Although rather usual in this region, locally or potentially dangerous phenomena are expected. (such as local winds, summer thunderstorms, rising streams or high waves) Be aware and pay attention to the latest weather updates, especially if you carry out activities exposed to weather or close to a stream or shoreline. 


Meteo18 Weather Cam more information Meteo18 Weather Cam


Thunder radar more information blitzortung!


Rain radar more information rain snow radar


Visit our other weather sites:

Template documentation
and downloads

And another site



Weather Underground History page Text

Daily Summary for August 11, 2017 Units:  English    Metric   Both
« Previous Day
Next Day »
Daily Weekly Monthly Yearly Custom
  High: Low: Average:
Temperature: TemperatureC °F 10.1 °F 14.6 °F
Dew Point: DewpointC °F 9.6 °F 11.5 °F
Humidity: Humidity % 58 % 83 %
Wind Speed: WindSpeedKMH mph 0.0 mph 2.8 mph
Wind Gust: WindSpeedGustKMH mph - -
Wind:- - WSW
Pressure: PressurehPa in 1020.5 in -
Precipitation: 0.3 in    
Historical Graphs
 
 
Tabular Data for August 11, 2017
Time Temperature Dew Point Pressure Wind Wind Speed Wind Gust Humidity Rainfall Rate (Hourly)
TemperatureC °F DewpointC °F PressurehPa in Calm     Humidity % HourlyPrecipMM in
00:02 12.4 °F 11.3 °F 1021.6 in Calm   1.6 mph 93 % 0.0 in
00:12 12.0 °F 10.9 °F 1021.6 in Calm   1.6 mph 93 % 0.0 in
00:17 11.9 °F 11.0 °F 1021.6 in Calm   1.6 mph 94 % 0.0 in
00:22 11.9 °F 11.0 °F 1021.6 in Calm   1.6 mph 94 % 0.0 in
00:27 11.8 °F 10.9 °F 1021.6 in Calm   1.6 mph 94 % 0.0 in
00:32 11.7 °F 10.8 °F 1021.6 in Calm   1.6 mph 94 % 0.0 in
00:42 11.6 °F 10.7 °F 1021.6 in Calm   1.6 mph 94 % 0.0 in
00:47 11.6 °F 10.8 °F 1021.6 in Calm   1.6 mph 95 % 0.0 in
00:52 11.6 °F 10.8 °F 1021.6 in Calm     95 % 0.0 in
00:57 11.4 °F 10.6 °F 1021.6 in Calm     95 % 0.0 in
01:02 11.3 °F 10.4 °F 1021.6 in Calm     94 % 0.0 in
01:12 11.2 °F 10.4 °F 1021.2 in Calm     95 % 0.0 in
01:17 11.2 °F 10.4 °F 1021.6 in Calm     95 % 0.0 in
01:22 11.2 °F 10.4 °F 1021.2 in Calm     95 % 0.0 in
01:27 11.2 °F 10.4 °F 1021.2 in Calm     95 % 0.0 in
01:32 11.3 °F 10.7 °F 1021.2 in Calm   3.2 mph 96 % 0.0 in
01:37 11.3 °F 10.7 °F 1021.2 in WNW 1.6 mph 3.2 mph 96 % 0.0 in
01:42 11.4 °F 10.8 °F 1021.2 in Calm   3.2 mph 96 % 0.0 in
01:52 11.4 °F 10.6 °F 1021.2 in West 1.6 mph 3.2 mph 95 % 0.0 in
01:57 11.3 °F 10.5 °F 1021.2 in Calm   3.2 mph 95 % 0.0 in
02:02 11.3 °F 10.5 °F 1021.2 in Calm   3.2 mph 95 % 0.0 in
02:07 11.3 °F 10.7 °F 1021.2 in NNE 1.6 mph 1.6 mph 96 % 0.0 in
02:12 11.3 °F 10.7 °F 1021.2 in Calm   1.6 mph 96 % 0.0 in
02:17 11.1 °F 10.3 °F 1021.2 in Calm   1.6 mph 95 % 0.0 in
02:22 11.1 °F 10.5 °F 1021.2 in Calm   1.6 mph 96 % 0.0 in
02:27 11.1 °F 10.5 °F 1021.2 in Calm   1.6 mph 96 % 0.0 in
02:32 11.1 °F 10.5 °F 1021.2 in Calm   1.6 mph 96 % 0.0 in
02:37 10.9 °F 10.1 °F 1021.2 in Calm     95 % 0.0 in
02:42 10.8 °F 10.2 °F 1021.6 in Calm     96 % 0.0 in
02:47 10.6 °F 9.8 °F 1021.2 in Calm   1.6 mph 95 % 0.0 in
02:52 10.6 °F 10.0 °F 1021.2 in Calm   1.6 mph 96 % 0.0 in
02:57 10.8 °F 10.3 °F 1021.2 in Calm   1.6 mph 97 % 0.0 in
03:02 10.9 °F 10.3 °F 1021.6 in Calm   1.6 mph 96 % 0.0 in
03:12 10.8 °F 10.2 °F 1021.2 in Calm   1.6 mph 96 % 0.0 in
03:17 10.7 °F 10.1 °F 1021.2 in Calm   1.6 mph 96 % 0.0 in
03:22 10.4 °F 9.6 °F 1021.2 in WNW 3.2 mph 3.2 mph 95 % 0.0 in
03:27 10.3 °F 9.7 °F 1021.2 in NW 1.6 mph 3.2 mph 96 % 0.0 in
03:32 10.5 °F 9.9 °F 1021.2 in WNW 1.6 mph 4.8 mph 96 % 0.0 in
03:37 10.7 °F 10.2 °F 1021.2 in WNW 1.6 mph 4.8 mph 97 % 0.0 in
03:42 10.7 °F 10.1 °F 1021.2 in Calm   4.8 mph 96 % 0.0 in
03:47 10.7 °F 10.1 °F 1021.2 in WNW 1.6 mph 3.2 mph 96 % 0.0 in
03:52 10.7 °F 10.1 °F 1020.9 in Calm   3.2 mph 96 % 0.0 in
03:57 10.6 °F 10.0 °F 1020.9 in Calm   3.2 mph 96 % 0.0 in
04:02 10.6 °F 10.0 °F 1020.9 in Calm   3.2 mph 96 % 0.0 in
04:07 10.6 °F 10.0 °F 1020.9 in Calm   1.6 mph 96 % 0.0 in
04:12 10.6 °F 10.0 °F 1020.9 in Calm     96 % 0.0 in
04:17 10.6 °F 10.0 °F 1020.9 in Calm     96 % 0.0 in
04:22 10.5 °F 9.9 °F 1020.9 in Calm     96 % 0.0 in
04:27 10.4 °F 9.8 °F 1020.9 in Calm     96 % 0.0 in
04:32 10.3 °F 9.7 °F 1020.9 in Calm   1.6 mph 96 % 0.0 in
04:37 10.4 °F 9.8 °F 1020.9 in Calm   1.6 mph 96 % 0.0 in
04:42 10.3 °F 9.7 °F 1020.9 in SSE 1.6 mph 1.6 mph 96 % 0.0 in
04:47 10.2 °F 9.6 °F 1020.9 in Calm   1.6 mph 96 % 0.0 in
04:52 10.2 °F 9.6 °F 1020.9 in Calm   1.6 mph 96 % 0.3 in
05:02 10.4 °F 9.9 °F 1020.9 in Calm   1.6 mph 97 % 0.3 in
05:07 10.3 °F 9.8 °F 1020.9 in Calm     97 % 0.3 in
05:12 10.3 °F 9.8 °F 1020.5 in Calm     97 % 0.3 in
05:22 10.2 °F 9.6 °F 1020.5 in Calm     96 % 0.3 in
05:32 10.3 °F 9.8 °F 1020.5 in Calm     97 % 0.3 in
05:42 10.2 °F 9.7 °F 1020.5 in Calm     97 % 0.3 in
05:47 10.1 °F 9.6 °F 1020.5 in WNW 3.2 mph 3.2 mph 97 % 0.3 in
05:52 10.1 °F 9.6 °F 1020.5 in NW 3.2 mph 3.2 mph 97 % 0.0 in
05:57 10.2 °F 9.7 °F 1020.5 in WNW 1.6 mph 6.4 mph 97 % 0.0 in
06:02 10.2 °F 9.7 °F 1020.5 in Calm   6.4 mph 97 % 0.0 in
06:12 10.2 °F 9.7 °F 1020.5 in Calm   6.4 mph 97 % 0.0 in
06:17 10.2 °F 9.7 °F 1020.5 in Calm   4.8 mph 97 % 0.0 in
06:22 10.2 °F 9.7 °F 1020.5 in Calm   4.8 mph 97 % 0.0 in
06:27 10.3 °F 9.8 °F 1020.9 in NW 1.6 mph 3.2 mph 97 % 0.0 in
06:32 10.4 °F 9.9 °F 1020.9 in NW 4.8 mph 4.8 mph 97 % 0.0 in
06:42 10.7 °F 10.2 °F 1020.9 in WNW 1.6 mph 11.3 mph 97 % 0.0 in
06:52 10.8 °F 10.3 °F 1020.9 in Calm   11.3 mph 97 % 0.0 in
07:02 10.9 °F 10.4 °F 1020.9 in NNW 6.4 mph 6.4 mph 97 % 0.0 in
07:12 11.1 °F 10.6 °F 1021.2 in West 3.2 mph 6.4 mph 97 % 0.0 in
07:22 11.3 °F 10.8 °F 1021.2 in NNE 8.0 mph 9.7 mph 97 % 0.0 in
07:32 11.3 °F 10.8 °F 1021.2 in NNE 4.8 mph 11.3 mph 97 % 0.0 in
07:42 11.4 °F 10.9 °F 1021.2 in North 4.8 mph 11.3 mph 97 % 0.0 in
07:47 11.5 °F 11.0 °F 1021.2 in Calm   8.0 mph 97 % 0.0 in
07:52 11.6 °F 11.1 °F 1021.2 in NNW 1.6 mph 8.0 mph 97 % 0.0 in
07:57 11.6 °F 11.1 °F 1021.2 in Calm   4.8 mph 97 % 0.0 in
08:02 11.7 °F 11.2 °F 1021.2 in North 4.8 mph 4.8 mph 97 % 0.0 in
08:12 11.8 °F 11.3 °F 1021.2 in WNW 1.6 mph 4.8 mph 97 % 0.0 in
08:17 11.8 °F 11.3 °F 1021.2 in WNW 4.8 mph 4.8 mph 97 % 0.0 in
08:22 11.9 °F 11.4 °F 1021.2 in West 1.6 mph 4.8 mph 97 % 0.0 in
08:32 12.2 °F 11.7 °F 1021.2 in Calm   4.8 mph 97 % 0.0 in
08:42 12.3 °F 11.8 °F 1021.2 in North 1.6 mph 4.8 mph 97 % 0.0 in
08:52 12.5 °F 12.0 °F 1021.2 in NW 4.8 mph 6.4 mph 97 % 0.0 in
08:57 12.7 °F 12.2 °F 1021.2 in WNW 8.0 mph 9.7 mph 97 % 0.0 in
09:02 12.7 °F 12.1 °F 1021.2 in NW 3.2 mph 9.7 mph 96 % 0.0 in
09:12 12.8 °F 12.0 °F 1021.6 in WNW 6.4 mph 9.7 mph 95 % 0.0 in
09:17 12.7 °F 11.9 °F 1021.6 in WNW 4.8 mph 12.9 mph 95 % 0.0 in
09:27 12.8 °F 12.0 °F 1021.6 in WNW 4.8 mph 9.7 mph 95 % 0.0 in
09:32 12.8 °F 12.0 °F 1021.6 in NW 1.6 mph 9.7 mph 95 % 0.0 in
09:37 13.0 °F 12.2 °F 1021.6 in NW 1.6 mph 6.4 mph 95 % 0.0 in
09:42 13.3 °F 12.5 °F 1021.6 in Calm   6.4 mph 95 % 0.0 in
09:47 13.4 °F 12.5 °F 1021.6 in WNW 4.8 mph 4.8 mph 94 % 0.0 in
09:52 13.6 °F 12.5 °F 1021.6 in NNW 3.2 mph 4.8 mph 93 % 0.0 in
10:02 13.9 °F 12.6 °F 1021.6 in WNW 6.4 mph 8.0 mph 92 % 0.0 in
10:07 13.9 °F 12.5 °F 1021.9 in WNW 4.8 mph 8.0 mph 91 % 0.0 in
10:12 14.1 °F 12.7 °F 1021.9 in NW 4.8 mph 8.0 mph 91 % 0.0 in
10:17 14.3 °F 12.7 °F 1021.9 in NW 6.4 mph 9.7 mph 90 % 0.0 in
10:22 14.7 °F 12.9 °F 1021.6 in NNW 3.2 mph 9.7 mph 89 % 0.0 in
10:32 15.1 °F 12.6 °F 1021.9 in NNE 9.7 mph 12.9 mph 85 % 0.0 in
10:42 14.8 °F 12.1 °F 1021.9 in WNW 8.0 mph 14.5 mph 84 % 0.0 in
10:47 14.6 °F 12.1 °F 1021.9 in NW 3.2 mph 12.9 mph 85 % 0.0 in
10:52 14.9 °F 12.2 °F 1021.9 in Calm   12.9 mph 84 % 0.0 in
10:57 15.1 °F 12.4 °F 1021.9 in North 3.2 mph 11.3 mph 84 % 0.0 in
11:02 15.2 °F 12.3 °F 1021.9 in NW 1.6 mph 11.3 mph 83 % 0.0 in
11:12 15.2 °F 12.3 °F 1022.2 in WNW 1.6 mph 9.7 mph 83 % 0.0 in
11:17 15.4 °F 12.2 °F 1022.2 in NNW 3.2 mph 9.7 mph 81 % 0.0 in
11:22 15.3 °F 12.2 °F 1021.9 in NNE 3.2 mph 9.7 mph 82 % 0.0 in
11:32 15.6 °F 12.5 °F 1021.9 in Calm   9.7 mph 82 % 0.0 in
11:37 16.1 °F 12.5 °F 1021.9 in NNW 3.2 mph 6.4 mph 79 % 0.0 in
11:42 16.4 °F 12.6 °F 1021.9 in NE 3.2 mph 6.4 mph 78 % 0.0 in
11:47 16.2 °F 12.4 °F 1022.2 in NE 6.4 mph 9.7 mph 78 % 0.0 in
11:52 16.1 °F 12.6 °F 1022.2 in North 3.2 mph 9.7 mph 80 % 0.0 in
12:02 16.4 °F 12.6 °F 1022.2 in NNE 3.2 mph 12.9 mph 78 % 0.0 in
12:12 16.3 °F 12.5 °F 1022.2 in NW 3.2 mph 11.3 mph 78 % 0.0 in
12:17 16.3 °F 12.5 °F 1022.2 in West 1.6 mph 8.0 mph 78 % 0.0 in
12:22 16.1 °F 12.5 °F 1022.2 in West 1.6 mph 9.7 mph 79 % 0.0 in
12:32 15.7 °F 12.4 °F 1022.2 in NE 3.2 mph 11.3 mph 81 % 0.0 in
12:42 15.3 °F 12.2 °F 1022.2 in NNW 1.6 mph 11.3 mph 82 % 0.0 in
12:52 16.2 °F 12.7 °F 1022.2 in ENE 1.6 mph 8.0 mph 80 % 0.0 in
12:57 16.6 °F 12.7 °F 1022.2 in NNW 6.4 mph 12.9 mph 78 % 0.0 in
13:02 16.6 °F 12.9 °F 1022.2 in Calm   12.9 mph 79 % 0.0 in
13:12 16.4 °F 12.2 °F 1022.2 in NNW 3.2 mph 9.7 mph 76 % 0.0 in
13:17 16.9 °F 12.2 °F 1022.2 in NNW 6.4 mph 9.7 mph 74 % 0.0 in
13:27 16.9 °F 12.4 °F 1022.2 in NNW 1.6 mph 12.9 mph 75 % 0.0 in
13:32 17.3 °F 13.0 °F 1022.2 in NW 11.3 mph 12.9 mph 76 % 0.0 in
13:42 17.3 °F 12.4 °F 1022.2 in NW 8.0 mph 12.9 mph 73 % 0.0 in
13:47 17.6 °F 12.7 °F 1022.2 in NNW 4.8 mph 12.9 mph 73 % 0.0 in
13:52 17.7 °F 12.8 °F 1022.2 in NE 3.2 mph 11.3 mph 73 % 0.0 in
13:57 17.7 °F 13.0 °F 1022.2 in North 6.4 mph 12.9 mph 74 % 0.0 in
14:02 17.9 °F 12.6 °F 1022.2 in WNW 4.8 mph 12.9 mph 71 % 0.0 in
14:12 17.9 °F 12.6 °F 1022.2 in NW 1.6 mph 16.1 mph 71 % 0.0 in
14:17 18.2 °F 12.6 °F 1022.2 in North 4.8 mph 16.1 mph 70 % 0.0 in
14:22 17.8 °F 12.0 °F 1022.2 in NNE 3.2 mph 17.7 mph 69 % 0.0 in
14:27 17.5 °F 12.0 °F 1022.2 in NNW 12.9 mph 17.7 mph 70 % 0.0 in
14:32 17.4 °F 12.3 °F 1022.2 in WNW 11.3 mph 17.7 mph 72 % 0.0 in
14:42 17.8 °F 12.5 °F 1022.2 in WNW 9.7 mph 17.7 mph 71 % 0.0 in
14:47 17.9 °F 12.6 °F 1021.9 in West 8.0 mph 17.7 mph 71 % 0.0 in
14:52 18.1 °F 12.1 °F 1022.2 in NNW 4.8 mph 17.7 mph 68 % 0.0 in
14:57 18.2 °F 12.6 °F 1021.9 in NNW 4.8 mph 17.7 mph 70 % 0.0 in
15:02 18.2 °F 12.4 °F 1022.2 in NNE 3.2 mph 12.9 mph 69 % 0.0 in
15:12 18.3 °F 12.7 °F 1022.2 in NW 4.8 mph 16.1 mph 70 % 0.0 in
15:17 18.6 °F 12.8 °F 1022.2 in WNW 3.2 mph 16.1 mph 69 % 0.0 in
15:22 18.6 °F 12.1 °F 1022.2 in West 12.9 mph 12.9 mph 66 % 0.0 in
15:27 18.4 °F 12.4 °F 1022.2 in NNE 11.3 mph 14.5 mph 68 % 0.0 in
15:32 18.2 °F 12.2 °F 1022.2 in North 3.2 mph 14.5 mph 68 % 0.0 in
15:42 18.3 °F 11.8 °F 1022.2 in North 4.8 mph 12.9 mph 66 % 0.0 in
15:52 18.9 °F 12.2 °F 1021.9 in WSW 1.6 mph 12.9 mph 65 % 0.0 in
15:57 18.8 °F 11.6 °F 1021.9 in SW 1.6 mph 9.7 mph 63 % 0.0 in
16:02 19.1 °F 12.1 °F 1021.9 in NNW 1.6 mph 9.7 mph 64 % 0.0 in
16:12 19.3 °F 12.1 °F 1021.6 in NNE 3.2 mph 8.0 mph 63 % 0.0 in
16:17 19.6 °F 12.8 °F 1021.6 in WNW 4.8 mph 12.9 mph 65 % 0.0 in
16:22 19.4 °F 11.9 °F 1021.6 in West 1.6 mph 12.9 mph 62 % 0.0 in
16:27 19.6 °F 12.1 °F 1021.6 in WNW 1.6 mph 11.3 mph 62 % 0.0 in
16:32 19.5 °F 11.5 °F 1021.6 in NW 6.4 mph 11.3 mph 60 % 0.0 in
16:42 19.5 °F 12.3 °F 1021.6 in WNW 4.8 mph 12.9 mph 63 % 0.0 in
16:47 19.7 °F 11.7 °F 1021.6 in West 3.2 mph 12.9 mph 60 % 0.0 in
16:52 19.8 °F 12.1 °F 1021.6 in NNE 3.2 mph 9.7 mph 61 % 0.0 in
16:57 19.8 °F 11.8 °F 1021.6 in NW 3.2 mph 9.7 mph 60 % 0.0 in
17:02 19.4 °F 11.7 °F 1021.6 in WNW 3.2 mph 9.7 mph 61 % 0.0 in
17:12 19.7 °F 11.7 °F 1021.6 in West 3.2 mph 8.0 mph 60 % 0.0 in
17:17 19.5 °F 11.8 °F 1021.6 in Calm   4.8 mph 61 % 0.0 in
17:22 19.5 °F 11.8 °F 1021.2 in Calm   4.8 mph 61 % 0.0 in
17:27 19.8 °F 12.3 °F 1021.2 in Calm   4.8 mph 62 % 0.0 in
17:32 19.9 °F 12.2 °F 1021.2 in Calm   1.6 mph 61 % 0.0 in
17:42 19.6 °F 11.9 °F 1021.6 in West 3.2 mph 8.0 mph 61 % 0.0 in
17:52 19.7 °F 12.7 °F 1021.2 in NNE 1.6 mph 9.7 mph 64 % 0.0 in
18:02 19.4 °F 12.2 °F 1021.2 in NE 3.2 mph 9.7 mph 63 % 0.0 in
18:12 19.5 °F 11.8 °F 1021.6 in East 1.6 mph 8.0 mph 61 % 0.0 in
18:17 20.1 °F 12.1 °F 1021.6 in NNW 6.4 mph 6.4 mph 60 % 0.0 in
18:22 20.4 °F 11.9 °F 1021.6 in SW 8.0 mph 8.0 mph 58 % 0.0 in
18:32 20.5 °F 12.0 °F 1021.6 in NW 6.4 mph 17.7 mph 58 % 0.0 in
18:42 20.3 °F 11.8 °F 1021.6 in WNW 3.2 mph 12.9 mph 58 % 0.0 in
18:47 19.9 °F 11.9 °F 1021.6 in WNW 6.4 mph 20.9 mph 60 % 0.0 in
18:52 19.6 °F 12.1 °F 1021.6 in WNW 12.9 mph 20.9 mph 62 % 0.0 in
18:57 19.3 °F 12.6 °F 1021.6 in NW 9.7 mph 20.9 mph 65 % 0.0 in
19:02 19.1 °F 12.6 °F 1021.6 in WNW 6.4 mph 16.1 mph 66 % 0.0 in
19:12 18.9 °F 12.6 °F 1021.9 in NW 4.8 mph 12.9 mph 67 % 0.0 in
19:17 18.8 °F 12.5 °F 1021.9 in WNW 8.0 mph 11.3 mph 67 % 0.0 in
19:22 18.8 °F 12.8 °F 1021.9 in West 1.6 mph 11.3 mph 68 % 0.0 in
19:32 18.8 °F 13.0 °F 1021.9 in WNW 3.2 mph 8.0 mph 69 % 0.0 in
19:42 18.7 °F 12.7 °F 1021.6 in NW 3.2 mph 11.3 mph 68 % 0.0 in
19:52 19.2 °F 12.7 °F 1021.6 in West 6.4 mph 14.5 mph 66 % 0.0 in
19:57 19.3 °F 13.0 °F 1021.6 in WNW 3.2 mph 16.1 mph 67 % 0.0 in
20:02 19.1 °F 12.8 °F 1021.9 in NNW 6.4 mph 16.1 mph 67 % 0.0 in
20:07 18.8 °F 12.8 °F 1021.6 in WNW 12.9 mph 16.1 mph 68 % 0.0 in
20:12 18.5 °F 12.9 °F 1021.6 in West 6.4 mph 20.9 mph 70 % 0.0 in
20:17 18.3 °F 13.0 °F 1021.9 in WNW 14.5 mph 20.9 mph 71 % 0.0 in
20:22 18.2 °F 13.1 °F 1021.9 in West 6.4 mph 20.9 mph 72 % 0.0 in
20:32 17.9 °F 12.8 °F 1021.9 in NW 1.6 mph 17.7 mph 72 % 0.0 in
20:42 17.8 °F 12.9 °F 1021.9 in West 1.6 mph 16.1 mph 73 % 0.0 in
20:52 17.6 °F 12.9 °F 1022.2 in West 8.0 mph 17.7 mph 74 % 0.0 in
21:02 17.3 °F 13.0 °F 1022.2 in NW 3.2 mph 12.9 mph 76 % 0.0 in
21:07 17.2 °F 12.9 °F 1022.2 in WSW 1.6 mph 12.9 mph 76 % 0.0 in
21:17 16.9 °F 12.8 °F 1022.2 in Calm   12.9 mph 77 % 0.0 in
21:22 16.8 °F 12.7 °F 1022.2 in NW 4.8 mph 9.7 mph 77 % 0.0 in
21:32 16.4 °F 12.7 °F 1022.2 in West 6.4 mph 9.7 mph 79 % 0.0 in
21:42 16.2 °F 12.6 °F 1022.2 in WNW 1.6 mph 8.0 mph 79 % 0.0 in
21:47 16.2 °F 12.6 °F 1022.2 in Calm   8.0 mph 79 % 0.0 in
21:52 16.1 °F 12.5 °F 1022.2 in WNW 1.6 mph 6.4 mph 79 % 0.0 in
21:57 15.9 °F 12.3 °F 1022.6 in West 3.2 mph 6.4 mph 79 % 0.0 in
22:02 15.7 °F 12.1 °F 1022.6 in WNW 6.4 mph 9.7 mph 79 % 0.0 in
22:07 15.7 °F 12.1 °F 1022.6 in WNW 4.8 mph 11.3 mph 79 % 0.0 in
22:17 15.7 °F 11.9 °F 1022.9 in WNW 4.8 mph 12.9 mph 78 % 0.0 in
22:22 15.7 °F 12.1 °F 1022.9 in West 3.2 mph 12.9 mph 79 % 0.0 in
22:32 15.4 °F 11.8 °F 1022.9 in WNW 3.2 mph 9.7 mph 79 % 0.0 in
22:42 15.3 °F 11.9 °F 1022.9 in WNW 1.6 mph 8.0 mph 80 % 0.0 in
22:52 15.1 °F 11.9 °F 1022.9 in Calm   8.0 mph 81 % 0.0 in
23:02 14.8 °F 11.8 °F 1022.9 in West 1.6 mph 3.2 mph 82 % 0.0 in
23:12 14.8 °F 11.8 °F 1022.9 in West 1.6 mph 3.2 mph 82 % 0.0 in
23:17 14.8 °F 11.8 °F 1022.9 in West 1.6 mph 3.2 mph 82 % 0.0 in
23:22 14.8 °F 11.8 °F 1022.9 in Calm   3.2 mph 82 % 0.0 in
23:32 14.6 °F 11.7 °F 1022.9 in Calm   1.6 mph 83 % 0.0 in
23:37 14.4 °F 11.7 °F 1022.9 in Calm   1.6 mph 84 % 0.0 in
23:42 14.3 °F 11.6 °F 1022.9 in Calm   1.6 mph 84 % 0.0 in
23:47 14.1 °F 11.4 °F 1022.9 in Calm   1.6 mph 84 % 0.0 in
23:52 13.9 °F 11.4 °F 1022.9 in Calm     85 % 0.0 in
Meteo18
Compliments of Weather Underground - 4 mb

Script developed by  Jim McMurry - jmcmurry@mwt.net Adapted for the template by  Wim van der Kuil - Leuven-Template.eu

You find our weather info also at:

European Weather Network

Weather Underground

Equipment we use:

Weather-station
Davis Vue

Weather-program
Meteobridge

Weather-server
Raspberry PI 2 B+

Provider
1 and 1

Davis Vue

Meteobridge

Raspberry PI 2 B+

1 and 1